sensor_id;sensor_type;location;lat;lon;timestamp;P1;durP1;ratioP1;P2;durP2;ratioP2
53961;SDS011;39868;53.398;6.564;2023-02-01T00:01:08;12.93;;;2.60;;
53961;SDS011;39868;53.398;6.564;2023-02-01T00:03:35;15.13;;;2.73;;
53961;SDS011;39868;53.398;6.564;2023-02-01T00:06:03;17.03;;;2.57;;
53961;SDS011;39868;53.398;6.564;2023-02-01T00:08:31;11.70;;;2.77;;
53961;SDS011;39868;53.398;6.564;2023-02-01T00:11:02;13.13;;;4.17;;
53961;SDS011;39868;53.398;6.564;2023-02-01T00:13:32;18.10;;;2.80;;
53961;SDS011;39868;53.398;6.564;2023-02-01T00:16:05;10.80;;;2.47;;
53961;SDS011;39868;53.398;6.564;2023-02-01T00:18:36;13.27;;;3.10;;
53961;SDS011;39868;53.398;6.564;2023-02-01T00:21:04;15.63;;;3.70;;
53961;SDS011;39868;53.398;6.564;2023-02-01T00:23:32;14.03;;;3.07;;
53961;SDS011;39868;53.398;6.564;2023-02-01T00:26:01;10.57;;;2.50;;
53961;SDS011;39868;53.398;6.564;2023-02-01T00:28:35;10.40;;;2.60;;
53961;SDS011;39868;53.398;6.564;2023-02-01T00:31:03;10.53;;;2.47;;
53961;SDS011;39868;53.398;6.564;2023-02-01T00:33:31;13.97;;;2.53;;
53961;SDS011;39868;53.398;6.564;2023-02-01T00:36:00;9.63;;;2.50;;
53961;SDS011;39868;53.398;6.564;2023-02-01T00:38:33;13.25;;;2.85;;
53961;SDS011;39868;53.398;6.564;2023-02-01T00:41:04;12.77;;;2.90;;
53961;SDS011;39868;53.398;6.564;2023-02-01T00:43:38;9.00;;;2.10;;
53961;SDS011;39868;53.398;6.564;2023-02-01T00:46:06;12.77;;;2.50;;
53961;SDS011;39868;53.398;6.564;2023-02-01T00:48:33;6.30;;;2.03;;
53961;SDS011;39868;53.398;6.564;2023-02-01T00:51:01;12.20;;;2.43;;
53961;SDS011;39868;53.398;6.564;2023-02-01T00:53:34;11.27;;;2.73;;
53961;SDS011;39868;53.398;6.564;2023-02-01T00:56:02;10.13;;;2.50;;
53961;SDS011;39868;53.398;6.564;2023-02-01T00:58:29;8.00;;;2.37;;
53961;SDS011;39868;53.398;6.564;2023-02-01T01:03:42;9.97;;;2.37;;
53961;SDS011;39868;53.398;6.564;2023-02-01T01:06:13;6.70;;;2.20;;
53961;SDS011;39868;53.398;6.564;2023-02-01T01:08:42;10.47;;;2.30;;
53961;SDS011;39868;53.398;6.564;2023-02-01T01:11:17;22.17;;;3.13;;
53961;SDS011;39868;53.398;6.564;2023-02-01T01:13:47;19.63;;;2.90;;
53961;SDS011;39868;53.398;6.564;2023-02-01T01:16:16;15.13;;;2.63;;
53961;SDS011;39868;53.398;6.564;2023-02-01T01:18:44;11.43;;;2.97;;
53961;SDS011;39868;53.398;6.564;2023-02-01T01:21:13;7.70;;;2.20;;
53961;SDS011;39868;53.398;6.564;2023-02-01T01:23:41;7.67;;;2.87;;
53961;SDS011;39868;53.398;6.564;2023-02-01T01:26:11;17.13;;;3.10;;
53961;SDS011;39868;53.398;6.564;2023-02-01T01:28:43;11.83;;;3.03;;
53961;SDS011;39868;53.398;6.564;2023-02-01T01:31:11;10.00;;;2.40;;
53961;SDS011;39868;53.398;6.564;2023-02-01T01:33:41;18.07;;;3.67;;
53961;SDS011;39868;53.398;6.564;2023-02-01T01:36:11;14.63;;;3.43;;
53961;SDS011;39868;53.398;6.564;2023-02-01T01:38:39;11.53;;;2.70;;
53961;SDS011;39868;53.398;6.564;2023-02-01T01:41:08;9.93;;;2.97;;
53961;SDS011;39868;53.398;6.564;2023-02-01T01:43:51;14.07;;;2.53;;
53961;SDS011;39868;53.398;6.564;2023-02-01T01:46:33;17.33;;;2.87;;
53961;SDS011;39868;53.398;6.564;2023-02-01T01:49:16;5.90;;;2.38;;
53961;SDS011;39868;53.398;6.564;2023-02-01T01:51:59;10.10;;;3.27;;
53961;SDS011;39868;53.398;6.564;2023-02-01T01:54:30;12.83;;;2.83;;
53961;SDS011;39868;53.398;6.564;2023-02-01T01:57:02;12.43;;;3.05;;
53961;SDS011;39868;53.398;6.564;2023-02-01T01:59:34;14.50;;;2.90;;
53961;SDS011;39868;53.398;6.564;2023-02-01T02:02:04;11.10;;;2.67;;
53961;SDS011;39868;53.398;6.564;2023-02-01T02:04:32;15.07;;;2.70;;
53961;SDS011;39868;53.398;6.564;2023-02-01T02:07:02;15.10;;;3.20;;
53961;SDS011;39868;53.398;6.564;2023-02-01T02:09:32;11.57;;;2.90;;
53961;SDS011;39868;53.398;6.564;2023-02-01T02:11:59;15.33;;;2.50;;
53961;SDS011;39868;53.398;6.564;2023-02-01T02:14:26;9.67;;;2.67;;
53961;SDS011;39868;53.398;6.564;2023-02-01T02:16:58;15.27;;;3.00;;
53961;SDS011;39868;53.398;6.564;2023-02-01T02:19:48;10.70;;;2.77;;
53961;SDS011;39868;53.398;6.564;2023-02-01T02:25:20;10.97;;;2.80;;
53961;SDS011;39868;53.398;6.564;2023-02-01T02:30:36;10.13;;;2.60;;
53961;SDS011;39868;53.398;6.564;2023-02-01T02:33:28;10.53;;;3.03;;
53961;SDS011;39868;53.398;6.564;2023-02-01T02:36:21;9.43;;;2.63;;
53961;SDS011;39868;53.398;6.564;2023-02-01T02:44:46;13.43;;;3.30;;
53961;SDS011;39868;53.398;6.564;2023-02-01T02:47:44;10.10;;;2.50;;
53961;SDS011;39868;53.398;6.564;2023-02-01T02:56:32;16.53;;;2.93;;
53961;SDS011;39868;53.398;6.564;2023-02-01T02:59:20;15.87;;;3.80;;
53961;SDS011;39868;53.398;6.564;2023-02-01T03:02:10;8.90;;;2.50;;
53961;SDS011;39868;53.398;6.564;2023-02-01T03:04:58;15.83;;;3.50;;
53961;SDS011;39868;53.398;6.564;2023-02-01T03:07:46;10.27;;;2.70;;
53961;SDS011;39868;53.398;6.564;2023-02-01T03:10:18;10.07;;;2.80;;
53961;SDS011;39868;53.398;6.564;2023-02-01T03:12:52;10.33;;;2.97;;
53961;SDS011;39868;53.398;6.564;2023-02-01T03:18:21;11.87;;;3.13;;
53961;SDS011;39868;53.398;6.564;2023-02-01T03:20:55;11.60;;;2.73;;
53961;SDS011;39868;53.398;6.564;2023-02-01T03:23:26;17.27;;;3.50;;
53961;SDS011;39868;53.398;6.564;2023-02-01T03:25:57;11.43;;;2.40;;
53961;SDS011;39868;53.398;6.564;2023-02-01T03:28:28;9.03;;;2.10;;
53961;SDS011;39868;53.398;6.564;2023-02-01T03:30:59;13.23;;;2.80;;
53961;SDS011;39868;53.398;6.564;2023-02-01T03:33:28;12.00;;;2.87;;
53961;SDS011;39868;53.398;6.564;2023-02-01T03:41:53;16.13;;;3.50;;
53961;SDS011;39868;53.398;6.564;2023-02-01T03:44:24;9.20;;;3.37;;
53961;SDS011;39868;53.398;6.564;2023-02-01T03:46:59;18.57;;;4.17;;
53961;SDS011;39868;53.398;6.564;2023-02-01T03:49:41;7.33;;;3.23;;
53961;SDS011;39868;53.398;6.564;2023-02-01T03:52:14;7.60;;;2.90;;
53961;SDS011;39868;53.398;6.564;2023-02-01T03:54:44;17.38;;;4.28;;
53961;SDS011;39868;53.398;6.564;2023-02-01T03:57:14;11.47;;;4.00;;
53961;SDS011;39868;53.398;6.564;2023-02-01T03:59:47;13.20;;;4.00;;
53961;SDS011;39868;53.398;6.564;2023-02-01T04:02:16;14.53;;;5.03;;
53961;SDS011;39868;53.398;6.564;2023-02-01T04:04:43;16.30;;;5.00;;
53961;SDS011;39868;53.398;6.564;2023-02-01T04:07:14;13.50;;;5.53;;
53961;SDS011;39868;53.398;6.564;2023-02-01T04:09:43;14.10;;;5.07;;
53961;SDS011;39868;53.398;6.564;2023-02-01T04:12:10;13.67;;;5.77;;
53961;SDS011;39868;53.398;6.564;2023-02-01T04:14:38;13.57;;;5.10;;
53961;SDS011;39868;53.398;6.564;2023-02-01T04:17:05;14.57;;;5.00;;
53961;SDS011;39868;53.398;6.564;2023-02-01T04:19:32;7.90;;;4.27;;
53961;SDS011;39868;53.398;6.564;2023-02-01T04:22:00;13.50;;;4.83;;
53961;SDS011;39868;53.398;6.564;2023-02-01T04:24:27;9.90;;;4.43;;
53961;SDS011;39868;53.398;6.564;2023-02-01T04:26:54;15.57;;;4.40;;
53961;SDS011;39868;53.398;6.564;2023-02-01T04:29:21;11.90;;;5.17;;
53961;SDS011;39868;53.398;6.564;2023-02-01T04:31:49;9.23;;;3.70;;
53961;SDS011;39868;53.398;6.564;2023-02-01T04:34:16;8.70;;;3.30;;
53961;SDS011;39868;53.398;6.564;2023-02-01T04:36:43;15.40;;;3.43;;
53961;SDS011;39868;53.398;6.564;2023-02-01T04:39:12;11.97;;;4.23;;
53961;SDS011;39868;53.398;6.564;2023-02-01T04:41:40;12.50;;;3.43;;
53961;SDS011;39868;53.398;6.564;2023-02-01T04:44:10;14.93;;;3.83;;
53961;SDS011;39868;53.398;6.564;2023-02-01T04:46:44;6.97;;;3.83;;
53961;SDS011;39868;53.398;6.564;2023-02-01T04:49:13;14.93;;;3.73;;
53961;SDS011;39868;53.398;6.564;2023-02-01T04:51:41;12.30;;;3.83;;
53961;SDS011;39868;53.398;6.564;2023-02-01T04:54:09;11.37;;;4.33;;
53961;SDS011;39868;53.398;6.564;2023-02-01T04:56:39;13.27;;;4.40;;
53961;SDS011;39868;53.398;6.564;2023-02-01T04:59:06;9.33;;;3.87;;
53961;SDS011;39868;53.398;6.564;2023-02-01T05:01:34;10.87;;;4.03;;
53961;SDS011;39868;53.398;6.564;2023-02-01T05:04:01;8.97;;;3.97;;
53961;SDS011;39868;53.398;6.564;2023-02-01T05:06:29;19.17;;;4.30;;
53961;SDS011;39868;53.398;6.564;2023-02-01T05:08:56;8.33;;;4.00;;
53961;SDS011;39868;53.398;6.564;2023-02-01T05:11:23;12.97;;;3.67;;
53961;SDS011;39868;53.398;6.564;2023-02-01T05:14:09;8.70;;;3.70;;
53961;SDS011;39868;53.398;6.564;2023-02-01T05:16:37;9.47;;;4.03;;
53961;SDS011;39868;53.398;6.564;2023-02-01T05:19:04;16.03;;;4.10;;
53961;SDS011;39868;53.398;6.564;2023-02-01T05:21:31;16.17;;;4.03;;
53961;SDS011;39868;53.398;6.564;2023-02-01T05:23:59;13.07;;;3.77;;
53961;SDS011;39868;53.398;6.564;2023-02-01T05:26:46;9.03;;;3.57;;
53961;SDS011;39868;53.398;6.564;2023-02-01T05:29:16;14.60;;;4.50;;
53961;SDS011;39868;53.398;6.564;2023-02-01T05:31:44;10.13;;;3.70;;
53961;SDS011;39868;53.398;6.564;2023-02-01T05:34:13;15.00;;;4.67;;
53961;SDS011;39868;53.398;6.564;2023-02-01T05:36:41;9.83;;;4.27;;
53961;SDS011;39868;53.398;6.564;2023-02-01T05:39:08;14.33;;;4.30;;
53961;SDS011;39868;53.398;6.564;2023-02-01T05:41:36;14.37;;;5.60;;
53961;SDS011;39868;53.398;6.564;2023-02-01T05:44:04;13.33;;;3.93;;
53961;SDS011;39868;53.398;6.564;2023-02-01T05:46:34;8.93;;;3.77;;
53961;SDS011;39868;53.398;6.564;2023-02-01T05:49:02;11.90;;;4.97;;
53961;SDS011;39868;53.398;6.564;2023-02-01T05:51:30;12.20;;;4.10;;
53961;SDS011;39868;53.398;6.564;2023-02-01T05:53:58;14.17;;;4.30;;
53961;SDS011;39868;53.398;6.564;2023-02-01T05:56:25;12.07;;;3.77;;
53961;SDS011;39868;53.398;6.564;2023-02-01T05:58:53;12.17;;;4.37;;
53961;SDS011;39868;53.398;6.564;2023-02-01T06:01:20;18.80;;;4.77;;
53961;SDS011;39868;53.398;6.564;2023-02-01T06:03:48;11.10;;;3.83;;
53961;SDS011;39868;53.398;6.564;2023-02-01T06:06:15;15.60;;;3.87;;
53961;SDS011;39868;53.398;6.564;2023-02-01T06:08:43;10.87;;;4.70;;
53961;SDS011;39868;53.398;6.564;2023-02-01T06:11:10;13.30;;;4.17;;
53961;SDS011;39868;53.398;6.564;2023-02-01T06:13:48;12.77;;;4.00;;
53961;SDS011;39868;53.398;6.564;2023-02-01T06:16:16;16.67;;;4.20;;
53961;SDS011;39868;53.398;6.564;2023-02-01T06:18:43;14.33;;;4.17;;
53961;SDS011;39868;53.398;6.564;2023-02-01T06:21:10;14.40;;;4.30;;
53961;SDS011;39868;53.398;6.564;2023-02-01T06:23:40;14.60;;;4.67;;
53961;SDS011;39868;53.398;6.564;2023-02-01T06:26:09;16.87;;;4.43;;
53961;SDS011;39868;53.398;6.564;2023-02-01T06:28:36;12.33;;;5.23;;
53961;SDS011;39868;53.398;6.564;2023-02-01T06:31:05;13.47;;;4.07;;
53961;SDS011;39868;53.398;6.564;2023-02-01T06:33:34;14.30;;;4.37;;
53961;SDS011;39868;53.398;6.564;2023-02-01T06:36:04;13.97;;;4.33;;
53961;SDS011;39868;53.398;6.564;2023-02-01T06:38:33;17.77;;;4.70;;
53961;SDS011;39868;53.398;6.564;2023-02-01T06:41:01;13.67;;;3.80;;
53961;SDS011;39868;53.398;6.564;2023-02-01T06:43:30;8.03;;;3.17;;
53961;SDS011;39868;53.398;6.564;2023-02-01T06:46:00;11.40;;;3.93;;
53961;SDS011;39868;53.398;6.564;2023-02-01T06:48:29;16.33;;;3.73;;
53961;SDS011;39868;53.398;6.564;2023-02-01T06:50:56;17.30;;;3.80;;
53961;SDS011;39868;53.398;6.564;2023-02-01T06:53:24;15.00;;;3.90;;
53961;SDS011;39868;53.398;6.564;2023-02-01T06:55:55;11.93;;;3.33;;
53961;SDS011;39868;53.398;6.564;2023-02-01T06:58:24;18.73;;;3.78;;
53961;SDS011;39868;53.398;6.564;2023-02-01T07:00:54;11.27;;;3.73;;
53961;SDS011;39868;53.398;6.564;2023-02-01T07:03:22;9.13;;;3.60;;
53961;SDS011;39868;53.398;6.564;2023-02-01T07:05:49;10.00;;;2.83;;
53961;SDS011;39868;53.398;6.564;2023-02-01T07:08:16;14.90;;;3.73;;
53961;SDS011;39868;53.398;6.564;2023-02-01T07:10:44;11.73;;;3.67;;
53961;SDS011;39868;53.398;6.564;2023-02-01T07:13:11;12.33;;;3.73;;
53961;SDS011;39868;53.398;6.564;2023-02-01T07:15:38;7.27;;;3.03;;
53961;SDS011;39868;53.398;6.564;2023-02-01T07:18:06;14.80;;;4.47;;
53961;SDS011;39868;53.398;6.564;2023-02-01T07:20:33;8.23;;;3.87;;
53961;SDS011;39868;53.398;6.564;2023-02-01T07:23:01;11.63;;;3.83;;
53961;SDS011;39868;53.398;6.564;2023-02-01T07:25:28;14.47;;;4.23;;
53961;SDS011;39868;53.398;6.564;2023-02-01T07:27:55;17.60;;;4.73;;
53961;SDS011;39868;53.398;6.564;2023-02-01T07:30:23;13.60;;;4.17;;
53961;SDS011;39868;53.398;6.564;2023-02-01T07:32:52;12.83;;;4.13;;
53961;SDS011;39868;53.398;6.564;2023-02-01T07:35:20;12.97;;;4.30;;
53961;SDS011;39868;53.398;6.564;2023-02-01T07:37:47;13.63;;;4.20;;
53961;SDS011;39868;53.398;6.564;2023-02-01T07:40:14;16.90;;;5.13;;
53961;SDS011;39868;53.398;6.564;2023-02-01T07:42:42;11.07;;;3.47;;
53961;SDS011;39868;53.398;6.564;2023-02-01T07:45:09;10.17;;;3.60;;
53961;SDS011;39868;53.398;6.564;2023-02-01T07:47:47;8.57;;;3.60;;
53961;SDS011;39868;53.398;6.564;2023-02-01T07:50:15;12.93;;;3.47;;
53961;SDS011;39868;53.398;6.564;2023-02-01T07:52:42;12.10;;;3.63;;
53961;SDS011;39868;53.398;6.564;2023-02-01T07:55:10;13.70;;;3.27;;
53961;SDS011;39868;53.398;6.564;2023-02-01T07:57:37;10.50;;;2.83;;
53961;SDS011;39868;53.398;6.564;2023-02-01T08:00:04;12.90;;;3.20;;
53961;SDS011;39868;53.398;6.564;2023-02-01T08:02:51;10.47;;;3.47;;
53961;SDS011;39868;53.398;6.564;2023-02-01T08:05:18;11.83;;;3.97;;
53961;SDS011;39868;53.398;6.564;2023-02-01T08:07:50;17.27;;;3.40;;
53961;SDS011;39868;53.398;6.564;2023-02-01T08:10:18;12.63;;;3.47;;
53961;SDS011;39868;53.398;6.564;2023-02-01T08:12:46;10.00;;;2.70;;
53961;SDS011;39868;53.398;6.564;2023-02-01T08:15:15;8.83;;;2.97;;
53961;SDS011;39868;53.398;6.564;2023-02-01T08:17:47;11.03;;;3.20;;
53961;SDS011;39868;53.398;6.564;2023-02-01T08:20:15;9.15;;;3.10;;
53961;SDS011;39868;53.398;6.564;2023-02-01T08:22:43;9.77;;;3.03;;
53961;SDS011;39868;53.398;6.564;2023-02-01T08:25:10;11.57;;;3.30;;
53961;SDS011;39868;53.398;6.564;2023-02-01T08:27:38;11.77;;;3.20;;
53961;SDS011;39868;53.398;6.564;2023-02-01T08:30:06;10.70;;;3.20;;
53961;SDS011;39868;53.398;6.564;2023-02-01T08:32:34;9.80;;;3.73;;
53961;SDS011;39868;53.398;6.564;2023-02-01T08:35:03;12.03;;;3.87;;
53961;SDS011;39868;53.398;6.564;2023-02-01T08:37:30;10.17;;;3.20;;
53961;SDS011;39868;53.398;6.564;2023-02-01T08:39:58;10.63;;;3.07;;
53961;SDS011;39868;53.398;6.564;2023-02-01T08:42:26;8.13;;;3.00;;
53961;SDS011;39868;53.398;6.564;2023-02-01T08:45:13;8.50;;;3.40;;
53961;SDS011;39868;53.398;6.564;2023-02-01T08:47:41;9.57;;;3.40;;
53961;SDS011;39868;53.398;6.564;2023-02-01T08:50:08;9.10;;;3.47;;
53961;SDS011;39868;53.398;6.564;2023-02-01T08:52:37;10.17;;;3.30;;
53961;SDS011;39868;53.398;6.564;2023-02-01T08:55:05;11.70;;;3.07;;
53961;SDS011;39868;53.398;6.564;2023-02-01T08:57:33;10.90;;;3.37;;
53961;SDS011;39868;53.398;6.564;2023-02-01T09:00:02;11.27;;;3.80;;
53961;SDS011;39868;53.398;6.564;2023-02-01T09:02:31;10.40;;;3.03;;
53961;SDS011;39868;53.398;6.564;2023-02-01T09:04:59;14.07;;;3.37;;
53961;SDS011;39868;53.398;6.564;2023-02-01T09:07:26;8.30;;;2.60;;
53961;SDS011;39868;53.398;6.564;2023-02-01T09:09:53;9.20;;;2.63;;
53961;SDS011;39868;53.398;6.564;2023-02-01T09:12:22;13.20;;;3.00;;
53961;SDS011;39868;53.398;6.564;2023-02-01T09:14:50;10.53;;;2.50;;
53961;SDS011;39868;53.398;6.564;2023-02-01T09:17:17;13.53;;;2.70;;
53961;SDS011;39868;53.398;6.564;2023-02-01T09:19:45;15.40;;;2.27;;
53961;SDS011;39868;53.398;6.564;2023-02-01T09:22:12;10.00;;;2.90;;
53961;SDS011;39868;53.398;6.564;2023-02-01T09:24:40;7.47;;;2.23;;
53961;SDS011;39868;53.398;6.564;2023-02-01T09:27:08;10.03;;;2.50;;
53961;SDS011;39868;53.398;6.564;2023-02-01T09:29:35;16.63;;;2.80;;
53961;SDS011;39868;53.398;6.564;2023-02-01T09:32:03;15.77;;;3.23;;
53961;SDS011;39868;53.398;6.564;2023-02-01T09:34:31;13.37;;;2.70;;
53961;SDS011;39868;53.398;6.564;2023-02-01T09:36:59;11.27;;;2.80;;
53961;SDS011;39868;53.398;6.564;2023-02-01T09:39:26;7.63;;;2.20;;
53961;SDS011;39868;53.398;6.564;2023-02-01T09:42:02;15.03;;;2.30;;
53961;SDS011;39868;53.398;6.564;2023-02-01T09:44:41;12.33;;;2.50;;
53961;SDS011;39868;53.398;6.564;2023-02-01T09:47:30;9.33;;;2.47;;
53961;SDS011;39868;53.398;6.564;2023-02-01T09:50:05;12.07;;;2.43;;
53961;SDS011;39868;53.398;6.564;2023-02-01T09:55:39;7.67;;;2.33;;
53961;SDS011;39868;53.398;6.564;2023-02-01T10:00:59;8.40;;;3.20;;
53961;SDS011;39868;53.398;6.564;2023-02-01T10:03:32;5.90;;;3.07;;
53961;SDS011;39868;53.398;6.564;2023-02-01T10:11:42;13.80;;;2.90;;
53961;SDS011;39868;53.398;6.564;2023-02-01T10:14:30;15.17;;;3.60;;
53961;SDS011;39868;53.398;6.564;2023-02-01T10:19:58;8.80;;;3.27;;
53961;SDS011;39868;53.398;6.564;2023-02-01T10:22:43;11.33;;;3.73;;
53961;SDS011;39868;53.398;6.564;2023-02-01T10:28:36;10.00;;;3.40;;
53961;SDS011;39868;53.398;6.564;2023-02-01T10:31:05;8.60;;;2.93;;
53961;SDS011;39868;53.398;6.564;2023-02-01T10:33:39;8.50;;;2.87;;
53961;SDS011;39868;53.398;6.564;2023-02-01T10:36:16;17.27;;;3.43;;
53961;SDS011;39868;53.398;6.564;2023-02-01T10:38:48;9.70;;;3.07;;
53961;SDS011;39868;53.398;6.564;2023-02-01T10:41:27;13.17;;;3.40;;
53961;SDS011;39868;53.398;6.564;2023-02-01T10:43:59;13.43;;;2.90;;
53961;SDS011;39868;53.398;6.564;2023-02-01T10:46:30;11.73;;;3.07;;
53961;SDS011;39868;53.398;6.564;2023-02-01T10:49:00;14.87;;;3.73;;
53961;SDS011;39868;53.398;6.564;2023-02-01T10:51:33;7.90;;;3.30;;
53961;SDS011;39868;53.398;6.564;2023-02-01T10:54:20;15.43;;;3.47;;
53961;SDS011;39868;53.398;6.564;2023-02-01T10:56:58;5.40;;;2.13;;
53961;SDS011;39868;53.398;6.564;2023-02-01T10:59:27;3.70;;;2.67;;
53961;SDS011;39868;53.398;6.564;2023-02-01T11:02:00;4.90;;;2.70;;
53961;SDS011;39868;53.398;6.564;2023-02-01T11:04:32;3.80;;;2.40;;
53961;SDS011;39868;53.398;6.564;2023-02-01T11:09:42;3.47;;;3.17;;
53961;SDS011;39868;53.398;6.564;2023-02-01T11:15:20;3.67;;;3.43;;
53961;SDS011;39868;53.398;6.564;2023-02-01T11:17:50;3.90;;;3.43;;
53961;SDS011;39868;53.398;6.564;2023-02-01T11:20:20;3.40;;;3.20;;
53961;SDS011;39868;53.398;6.564;2023-02-01T11:23:00;4.23;;;3.83;;
53961;SDS011;39868;53.398;6.564;2023-02-01T11:25:30;6.47;;;4.00;;
53961;SDS011;39868;53.398;6.564;2023-02-01T11:27:59;4.13;;;3.73;;
53961;SDS011;39868;53.398;6.564;2023-02-01T11:30:40;3.63;;;3.33;;
53961;SDS011;39868;53.398;6.564;2023-02-01T11:33:12;3.50;;;3.20;;
53961;SDS011;39868;53.398;6.564;2023-02-01T11:35:51;3.40;;;3.00;;
53961;SDS011;39868;53.398;6.564;2023-02-01T11:38:21;3.63;;;3.27;;
53961;SDS011;39868;53.398;6.564;2023-02-01T11:40:53;3.10;;;2.80;;
53961;SDS011;39868;53.398;6.564;2023-02-01T11:43:28;7.23;;;2.70;;
53961;SDS011;39868;53.398;6.564;2023-02-01T11:46:00;3.67;;;2.03;;
53961;SDS011;39868;53.398;6.564;2023-02-01T11:56:33;2.73;;;1.83;;
53961;SDS011;39868;53.398;6.564;2023-02-01T12:05:04;3.83;;;2.00;;
53961;SDS011;39868;53.398;6.564;2023-02-01T12:10:43;3.70;;;2.33;;
53961;SDS011;39868;53.398;6.564;2023-02-01T12:19:51;5.97;;;3.13;;
53961;SDS011;39868;53.398;6.564;2023-02-01T12:22:27;3.80;;;3.30;;
53961;SDS011;39868;53.398;6.564;2023-02-01T12:25:30;4.97;;;2.70;;
53961;SDS011;39868;53.398;6.564;2023-02-01T12:33:56;7.10;;;3.67;;
53961;SDS011;39868;53.398;6.564;2023-02-01T12:36:46;13.73;;;3.60;;
53961;SDS011;39868;53.398;6.564;2023-02-01T12:39:40;7.00;;;3.10;;
53961;SDS011;39868;53.398;6.564;2023-02-01T12:50:56;13.00;;;4.03;;
53961;SDS011;39868;53.398;6.564;2023-02-01T12:56:47;15.47;;;4.37;;
53961;SDS011;39868;53.398;6.564;2023-02-01T13:04:44;13.73;;;5.00;;
53961;SDS011;39868;53.398;6.564;2023-02-01T13:07:36;9.43;;;6.23;;
53961;SDS011;39868;53.398;6.564;2023-02-01T13:10:12;15.47;;;7.77;;
53961;SDS011;39868;53.398;6.564;2023-02-01T13:12:57;17.57;;;5.70;;
53961;SDS011;39868;53.398;6.564;2023-02-01T13:15:46;13.33;;;5.13;;
53961;SDS011;39868;53.398;6.564;2023-02-01T13:18:16;13.63;;;6.23;;
53961;SDS011;39868;53.398;6.564;2023-02-01T13:20:48;13.93;;;6.43;;
53961;SDS011;39868;53.398;6.564;2023-02-01T13:23:23;18.43;;;6.20;;
53961;SDS011;39868;53.398;6.564;2023-02-01T13:25:52;16.97;;;5.10;;
53961;SDS011;39868;53.398;6.564;2023-02-01T13:28:32;21.60;;;5.83;;
53961;SDS011;39868;53.398;6.564;2023-02-01T13:45:41;16.48;;;3.67;;
53961;SDS011;39868;53.398;6.564;2023-02-01T13:48:29;8.88;;;3.45;;
53961;SDS011;39868;53.398;6.564;2023-02-01T13:51:08;11.35;;;4.22;;
53961;SDS011;39868;53.398;6.564;2023-02-01T13:53:35;19.33;;;4.63;;
53961;SDS011;39868;53.398;6.564;2023-02-01T13:56:22;14.70;;;3.95;;
53961;SDS011;39868;53.398;6.564;2023-02-01T13:58:51;12.70;;;3.67;;
53961;SDS011;39868;53.398;6.564;2023-02-01T14:34:31;18.73;;;4.13;;
53961;SDS011;39868;53.398;6.564;2023-02-01T14:44:55;20.83;;;4.40;;
53961;SDS011;39868;53.398;6.564;2023-02-01T14:47:41;13.48;;;4.55;;
53961;SDS011;39868;53.398;6.564;2023-02-01T14:52:44;17.88;;;4.60;;
53961;SDS011;39868;53.398;6.564;2023-02-01T14:58:52;17.60;;;4.80;;
53961;SDS011;39868;53.398;6.564;2023-02-01T15:01:17;14.07;;;4.60;;
53961;SDS011;39868;53.398;6.564;2023-02-01T15:03:55;12.70;;;4.95;;
53961;SDS011;39868;53.398;6.564;2023-02-01T15:09:04;13.50;;;4.13;;
53961;SDS011;39868;53.398;6.564;2023-02-01T15:11:56;13.25;;;4.30;;
53961;SDS011;39868;53.398;6.564;2023-02-01T15:14:28;15.40;;;4.63;;
53961;SDS011;39868;53.398;6.564;2023-02-01T15:17:15;14.65;;;4.70;;
53961;SDS011;39868;53.398;6.564;2023-02-01T15:19:56;8.85;;;4.20;;
53961;SDS011;39868;53.398;6.564;2023-02-01T15:22:26;10.02;;;4.00;;
53961;SDS011;39868;53.398;6.564;2023-02-01T15:24:55;12.38;;;4.45;;
53961;SDS011;39868;53.398;6.564;2023-02-01T15:27:24;13.83;;;3.90;;
53961;SDS011;39868;53.398;6.564;2023-02-01T15:29:53;14.88;;;4.30;;
53961;SDS011;39868;53.398;6.564;2023-02-01T15:32:35;10.55;;;4.05;;
53961;SDS011;39868;53.398;6.564;2023-02-01T15:35:30;15.23;;;3.97;;
53961;SDS011;39868;53.398;6.564;2023-02-01T15:38:42;11.52;;;3.78;;
53961;SDS011;39868;53.398;6.564;2023-02-01T15:43:29;15.68;;;3.92;;
53961;SDS011;39868;53.398;6.564;2023-02-01T15:46:03;10.07;;;4.03;;
53961;SDS011;39868;53.398;6.564;2023-02-01T15:48:46;14.60;;;3.70;;
53961;SDS011;39868;53.398;6.564;2023-02-01T15:51:17;14.33;;;3.97;;
53961;SDS011;39868;53.398;6.564;2023-02-01T15:53:51;14.40;;;2.97;;
53961;SDS011;39868;53.398;6.564;2023-02-01T15:56:24;15.57;;;3.57;;
53961;SDS011;39868;53.398;6.564;2023-02-01T15:58:58;9.33;;;3.13;;
53961;SDS011;39868;53.398;6.564;2023-02-01T16:01:28;15.13;;;3.60;;
53961;SDS011;39868;53.398;6.564;2023-02-01T16:09:20;16.90;;;3.40;;
53961;SDS011;39868;53.398;6.564;2023-02-01T16:14:23;12.40;;;3.10;;
53961;SDS011;39868;53.398;6.564;2023-02-01T16:16:52;9.87;;;2.90;;
53961;SDS011;39868;53.398;6.564;2023-02-01T16:19:21;19.47;;;4.00;;
53961;SDS011;39868;53.398;6.564;2023-02-01T16:24:22;10.93;;;3.37;;
53961;SDS011;39868;53.398;6.564;2023-02-01T16:26:52;9.13;;;2.50;;
53961;SDS011;39868;53.398;6.564;2023-02-01T16:29:20;10.73;;;2.43;;
53961;SDS011;39868;53.398;6.564;2023-02-01T16:31:48;9.03;;;2.80;;
53961;SDS011;39868;53.398;6.564;2023-02-01T16:34:16;8.83;;;2.73;;
53961;SDS011;39868;53.398;6.564;2023-02-01T16:36:48;11.27;;;3.00;;
53961;SDS011;39868;53.398;6.564;2023-02-01T16:39:22;13.30;;;3.10;;
53961;SDS011;39868;53.398;6.564;2023-02-01T16:41:50;10.03;;;3.23;;
53961;SDS011;39868;53.398;6.564;2023-02-01T16:44:17;11.20;;;3.07;;
53961;SDS011;39868;53.398;6.564;2023-02-01T16:46:45;13.00;;;3.20;;
53961;SDS011;39868;53.398;6.564;2023-02-01T16:49:17;11.17;;;2.67;;
53961;SDS011;39868;53.398;6.564;2023-02-01T16:51:50;18.17;;;3.40;;
53961;SDS011;39868;53.398;6.564;2023-02-01T16:54:20;10.27;;;2.53;;
53961;SDS011;39868;53.398;6.564;2023-02-01T16:56:47;19.97;;;3.33;;
53961;SDS011;39868;53.398;6.564;2023-02-01T16:59:15;8.63;;;2.97;;
53961;SDS011;39868;53.398;6.564;2023-02-01T17:01:42;11.30;;;3.10;;
53961;SDS011;39868;53.398;6.564;2023-02-01T17:04:09;13.67;;;2.67;;
53961;SDS011;39868;53.398;6.564;2023-02-01T17:06:37;9.27;;;3.10;;
53961;SDS011;39868;53.398;6.564;2023-02-01T17:09:06;13.83;;;3.00;;
53961;SDS011;39868;53.398;6.564;2023-02-01T17:11:33;10.00;;;3.23;;
53961;SDS011;39868;53.398;6.564;2023-02-01T17:14:08;7.00;;;2.90;;
53961;SDS011;39868;53.398;6.564;2023-02-01T17:16:36;6.60;;;2.60;;
53961;SDS011;39868;53.398;6.564;2023-02-01T17:19:05;6.87;;;3.33;;
53961;SDS011;39868;53.398;6.564;2023-02-01T17:24:35;9.13;;;3.43;;
53961;SDS011;39868;53.398;6.564;2023-02-01T17:27:15;8.97;;;2.47;;
53961;SDS011;39868;53.398;6.564;2023-02-01T17:29:43;8.67;;;2.67;;
53961;SDS011;39868;53.398;6.564;2023-02-01T17:32:19;12.53;;;2.87;;
53961;SDS011;39868;53.398;6.564;2023-02-01T17:34:50;10.67;;;2.83;;
53961;SDS011;39868;53.398;6.564;2023-02-01T17:39:59;7.33;;;2.53;;
53961;SDS011;39868;53.398;6.564;2023-02-01T17:42:28;4.80;;;1.97;;
53961;SDS011;39868;53.398;6.564;2023-02-01T17:45:16;9.83;;;2.60;;
53961;SDS011;39868;53.398;6.564;2023-02-01T17:47:54;8.50;;;2.27;;
53961;SDS011;39868;53.398;6.564;2023-02-01T17:50:22;9.30;;;2.07;;
53961;SDS011;39868;53.398;6.564;2023-02-01T17:52:52;7.53;;;2.40;;
53961;SDS011;39868;53.398;6.564;2023-02-01T17:55:20;11.30;;;2.77;;
53961;SDS011;39868;53.398;6.564;2023-02-01T17:57:51;14.98;;;2.53;;
53961;SDS011;39868;53.398;6.564;2023-02-01T18:00:19;8.70;;;1.87;;
53961;SDS011;39868;53.398;6.564;2023-02-01T18:02:47;6.17;;;2.30;;
53961;SDS011;39868;53.398;6.564;2023-02-01T18:05:28;13.30;;;2.53;;
53961;SDS011;39868;53.398;6.564;2023-02-01T18:08:02;14.47;;;2.50;;